sensor_id;sensor_type;location;lat;lon;timestamp;pressure;altitude;pressure_sealevel;temperature;humidity
55289;BME280;41154;45.394;5.734;2023-05-03T00:00:03;97298.16;;;7.74;100.00
55289;BME280;41154;45.394;5.734;2023-05-03T00:02:33;97301.72;;;7.86;100.00
55289;BME280;41154;45.394;5.734;2023-05-03T00:05:00;97304.44;;;8.28;100.00
55289;BME280;41154;45.394;5.734;2023-05-03T00:07:26;97294.28;;;8.19;100.00
55289;BME280;41154;45.394;5.734;2023-05-03T00:09:51;97290.03;;;8.30;100.00
55289;BME280;41154;45.394;5.734;2023-05-03T00:12:17;97292.81;;;8.35;100.00
55289;BME280;41154;45.394;5.734;2023-05-03T00:14:44;97287.59;;;7.98;100.00
55289;BME280;41154;45.394;5.734;2023-05-03T00:17:10;97282.88;;;7.81;100.00
55289;BME280;41154;45.394;5.734;2023-05-03T00:19:35;97282.97;;;7.74;100.00
55289;BME280;41154;45.394;5.734;2023-05-03T00:22:01;97280.00;;;7.46;100.00
55289;BME280;41154;45.394;5.734;2023-05-03T00:24:28;97271.56;;;7.30;100.00
55289;BME280;41154;45.394;5.734;2023-05-03T00:26:53;97272.00;;;7.46;100.00
55289;BME280;41154;45.394;5.734;2023-05-03T00:29:19;97277.56;;;7.44;100.00
55289;BME280;41154;45.394;5.734;2023-05-03T00:31:47;97269.06;;;7.17;100.00
55289;BME280;41154;45.394;5.734;2023-05-03T00:34:12;97276.41;;;6.96;100.00
55289;BME280;41154;45.394;5.734;2023-05-03T00:36:39;97278.38;;;7.08;100.00
55289;BME280;41154;45.394;5.734;2023-05-03T00:39:04;97274.84;;;6.89;100.00
55289;BME280;41154;45.394;5.734;2023-05-03T00:41:30;97269.75;;;7.06;100.00
55289;BME280;41154;45.394;5.734;2023-05-03T00:43:56;97271.91;;;6.97;100.00
55289;BME280;41154;45.394;5.734;2023-05-03T00:46:22;97275.09;;;7.06;100.00
55289;BME280;41154;45.394;5.734;2023-05-03T00:48:48;97266.72;;;7.02;100.00
55289;BME280;41154;45.394;5.734;2023-05-03T00:51:15;97268.91;;;7.30;100.00
55289;BME280;41154;45.394;5.734;2023-05-03T00:53:42;97267.75;;;7.01;100.00
55289;BME280;41154;45.394;5.734;2023-05-03T00:56:08;97257.09;;;7.19;100.00
55289;BME280;41154;45.394;5.734;2023-05-03T00:58:34;97271.28;;;7.20;100.00
55289;BME280;41154;45.394;5.734;2023-05-03T01:01:05;97274.03;;;6.88;100.00
55289;BME280;41154;45.394;5.734;2023-05-03T01:03:32;97272.88;;;7.02;100.00
55289;BME280;41154;45.394;5.734;2023-05-03T01:08:58;97262.63;;;6.99;100.00
55289;BME280;41154;45.394;5.734;2023-05-03T01:11:36;97254.44;;;7.19;100.00
55289;BME280;41154;45.394;5.734;2023-05-03T01:16:49;97258.06;;;7.07;100.00
55289;BME280;41154;45.394;5.734;2023-05-03T01:19:28;97262.34;;;6.89;100.00
55289;BME280;41154;45.394;5.734;2023-05-03T01:22:07;97251.22;;;6.74;100.00
55289;BME280;41154;45.394;5.734;2023-05-03T01:24:35;97253.94;;;6.67;100.00
55289;BME280;41154;45.394;5.734;2023-05-03T01:27:03;97252.59;;;6.58;100.00
55289;BME280;41154;45.394;5.734;2023-05-03T01:29:29;97254.56;;;6.37;100.00
55289;BME280;41154;45.394;5.734;2023-05-03T01:31:59;97260.56;;;6.58;100.00
55289;BME280;41154;45.394;5.734;2023-05-03T01:34:54;97259.84;;;6.69;100.00
55289;BME280;41154;45.394;5.734;2023-05-03T01:37:24;97257.03;;;6.64;100.00
55289;BME280;41154;45.394;5.734;2023-05-03T01:40:01;97255.50;;;6.50;100.00
55289;BME280;41154;45.394;5.734;2023-05-03T01:42:29;97252.69;;;6.44;100.00
55289;BME280;41154;45.394;5.734;2023-05-03T01:44:55;97246.84;;;6.54;100.00
55289;BME280;41154;45.394;5.734;2023-05-03T01:47:22;97252.75;;;6.38;100.00
55289;BME280;41154;45.394;5.734;2023-05-03T01:49:47;97261.44;;;6.52;100.00
55289;BME280;41154;45.394;5.734;2023-05-03T01:52:13;97253.44;;;6.52;100.00
55289;BME280;41154;45.394;5.734;2023-05-03T01:54:39;97256.78;;;6.40;100.00
55289;BME280;41154;45.394;5.734;2023-05-03T01:57:04;97263.56;;;6.68;100.00
55289;BME280;41154;45.394;5.734;2023-05-03T01:59:30;97259.00;;;6.50;100.00
55289;BME280;41154;45.394;5.734;2023-05-03T02:01:56;97257.06;;;6.57;100.00
55289;BME280;41154;45.394;5.734;2023-05-03T02:04:23;97262.84;;;6.54;100.00
55289;BME280;41154;45.394;5.734;2023-05-03T02:06:50;97262.91;;;6.47;100.00
55289;BME280;41154;45.394;5.734;2023-05-03T02:09:16;97266.22;;;6.43;100.00
55289;BME280;41154;45.394;5.734;2023-05-03T02:11:42;97256.63;;;6.35;100.00
55289;BME280;41154;45.394;5.734;2023-05-03T02:14:08;97262.66;;;6.24;100.00
55289;BME280;41154;45.394;5.734;2023-05-03T02:16:34;97257.84;;;6.39;100.00
55289;BME280;41154;45.394;5.734;2023-05-03T02:19:00;97264.09;;;6.26;100.00
55289;BME280;41154;45.394;5.734;2023-05-03T02:21:25;97260.72;;;6.13;100.00
55289;BME280;41154;45.394;5.734;2023-05-03T02:23:51;97265.19;;;6.12;100.00
55289;BME280;41154;45.394;5.734;2023-05-03T02:26:20;97254.19;;;5.95;100.00
55289;BME280;41154;45.394;5.734;2023-05-03T02:28:46;97264.97;;;6.20;100.00
55289;BME280;41154;45.394;5.734;2023-05-03T02:31:11;97268.69;;;6.13;100.00
55289;BME280;41154;45.394;5.734;2023-05-03T02:33:41;97254.34;;;6.39;100.00
55289;BME280;41154;45.394;5.734;2023-05-03T02:36:07;97259.72;;;6.32;100.00
55289;BME280;41154;45.394;5.734;2023-05-03T02:38:33;97263.88;;;6.28;100.00
55289;BME280;41154;45.394;5.734;2023-05-03T02:40:59;97267.41;;;6.22;100.00
55289;BME280;41154;45.394;5.734;2023-05-03T02:43:25;97263.38;;;6.06;100.00
55289;BME280;41154;45.394;5.734;2023-05-03T02:45:51;97263.25;;;5.94;100.00
55289;BME280;41154;45.394;5.734;2023-05-03T02:48:17;97266.72;;;5.94;100.00
55289;BME280;41154;45.394;5.734;2023-05-03T02:50:43;97262.53;;;5.73;100.00
55289;BME280;41154;45.394;5.734;2023-05-03T02:53:08;97270.16;;;5.63;100.00
55289;BME280;41154;45.394;5.734;2023-05-03T02:55:35;97272.66;;;5.97;100.00
55289;BME280;41154;45.394;5.734;2023-05-03T02:58:02;97266.78;;;5.81;100.00
55289;BME280;41154;45.394;5.734;2023-05-03T03:00:27;97270.91;;;5.77;100.00
55289;BME280;41154;45.394;5.734;2023-05-03T03:02:53;97270.09;;;5.76;100.00
55289;BME280;41154;45.394;5.734;2023-05-03T03:05:20;97270.75;;;6.10;100.00
55289;BME280;41154;45.394;5.734;2023-05-03T03:07:48;97264.22;;;5.61;100.00
55289;BME280;41154;45.394;5.734;2023-05-03T03:10:15;97270.00;;;5.90;100.00
55289;BME280;41154;45.394;5.734;2023-05-03T03:12:41;97268.41;;;5.82;100.00
55289;BME280;41154;45.394;5.734;2023-05-03T03:15:11;97264.16;;;5.74;100.00
55289;BME280;41154;45.394;5.734;2023-05-03T03:17:38;97266.13;;;5.86;100.00
55289;BME280;41154;45.394;5.734;2023-05-03T03:20:06;97262.75;;;6.10;100.00
55289;BME280;41154;45.394;5.734;2023-05-03T03:22:39;97269.88;;;5.78;100.00
55289;BME280;41154;45.394;5.734;2023-05-03T03:25:05;97261.16;;;5.96;100.00
55289;BME280;41154;45.394;5.734;2023-05-03T03:27:32;97264.78;;;5.70;100.00
55289;BME280;41154;45.394;5.734;2023-05-03T03:29:58;97261.53;;;5.68;100.00
55289;BME280;41154;45.394;5.734;2023-05-03T03:32:24;97256.78;;;5.76;100.00
55289;BME280;41154;45.394;5.734;2023-05-03T03:34:52;97266.25;;;6.11;100.00
55289;BME280;41154;45.394;5.734;2023-05-03T03:37:18;97261.31;;;6.15;100.00
55289;BME280;41154;45.394;5.734;2023-05-03T03:39:46;97264.00;;;6.08;100.00
55289;BME280;41154;45.394;5.734;2023-05-03T03:42:14;97266.56;;;5.83;100.00
55289;BME280;41154;45.394;5.734;2023-05-03T03:44:40;97266.22;;;5.72;100.00
55289;BME280;41154;45.394;5.734;2023-05-03T03:47:07;97258.06;;;5.61;100.00
55289;BME280;41154;45.394;5.734;2023-05-03T03:49:33;97263.84;;;5.51;100.00
55289;BME280;41154;45.394;5.734;2023-05-03T03:51:59;97256.25;;;5.61;100.00
55289;BME280;41154;45.394;5.734;2023-05-03T03:54:25;97265.41;;;5.65;100.00
55289;BME280;41154;45.394;5.734;2023-05-03T03:56:51;97265.50;;;5.52;100.00
55289;BME280;41154;45.394;5.734;2023-05-03T03:59:18;97267.09;;;5.53;100.00
55289;BME280;41154;45.394;5.734;2023-05-03T04:01:45;97258.06;;;5.67;100.00
55289;BME280;41154;45.394;5.734;2023-05-03T04:04:12;97259.69;;;5.68;100.00
55289;BME280;41154;45.394;5.734;2023-05-03T04:06:38;97262.06;;;5.83;100.00
55289;BME280;41154;45.394;5.734;2023-05-03T04:09:08;97258.03;;;5.74;100.00
55289;BME280;41154;45.394;5.734;2023-05-03T04:11:35;97260.09;;;5.72;100.00
55289;BME280;41154;45.394;5.734;2023-05-03T04:14:02;97263.47;;;5.40;100.00
55289;BME280;41154;45.394;5.734;2023-05-03T04:16:30;97263.88;;;5.37;100.00
55289;BME280;41154;45.394;5.734;2023-05-03T04:18:59;97259.84;;;5.21;100.00
55289;BME280;41154;45.394;5.734;2023-05-03T04:21:26;97258.16;;;5.40;100.00
55289;BME280;41154;45.394;5.734;2023-05-03T04:23:54;97257.25;;;5.60;100.00
55289;BME280;41154;45.394;5.734;2023-05-03T04:26:22;97259.75;;;5.55;100.00
55289;BME280;41154;45.394;5.734;2023-05-03T04:28:51;97261.84;;;5.39;100.00
55289;BME280;41154;45.394;5.734;2023-05-03T04:31:18;97266.97;;;5.34;100.00
55289;BME280;41154;45.394;5.734;2023-05-03T04:33:46;97280.22;;;5.48;100.00
55289;BME280;41154;45.394;5.734;2023-05-03T04:36:15;97272.78;;;5.70;100.00
55289;BME280;41154;45.394;5.734;2023-05-03T04:38:43;97267.56;;;5.43;100.00
55289;BME280;41154;45.394;5.734;2023-05-03T04:41:09;97270.25;;;5.30;100.00
55289;BME280;41154;45.394;5.734;2023-05-03T04:43:37;97278.25;;;5.36;100.00
55289;BME280;41154;45.394;5.734;2023-05-03T04:46:03;97278.38;;;5.55;100.00
55289;BME280;41154;45.394;5.734;2023-05-03T04:48:30;97276.06;;;5.65;100.00
55289;BME280;41154;45.394;5.734;2023-05-03T04:50:56;97282.28;;;5.52;100.00
55289;BME280;41154;45.394;5.734;2023-05-03T04:53:23;97281.09;;;5.28;100.00
55289;BME280;41154;45.394;5.734;2023-05-03T04:56:03;97288.03;;;5.36;100.00
55289;BME280;41154;45.394;5.734;2023-05-03T04:58:33;97286.03;;;5.25;100.00
55289;BME280;41154;45.394;5.734;2023-05-03T05:00:59;97281.25;;;5.47;100.00
55289;BME280;41154;45.394;5.734;2023-05-03T05:03:28;97270.19;;;5.50;100.00
55289;BME280;41154;45.394;5.734;2023-05-03T05:05:57;97274.13;;;5.40;100.00
55289;BME280;41154;45.394;5.734;2023-05-03T05:08:23;97267.94;;;5.53;100.00
55289;BME280;41154;45.394;5.734;2023-05-03T05:10:54;97274.09;;;5.47;100.00
55289;BME280;41154;45.394;5.734;2023-05-03T05:13:24;97272.44;;;5.53;100.00
55289;BME280;41154;45.394;5.734;2023-05-03T05:15:50;97272.44;;;5.53;100.00
55289;BME280;41154;45.394;5.734;2023-05-03T05:18:16;97265.66;;;5.57;100.00
55289;BME280;41154;45.394;5.734;2023-05-03T05:20:43;97258.34;;;5.84;100.00
55289;BME280;41154;45.394;5.734;2023-05-03T05:23:10;97266.97;;;5.86;100.00
55289;BME280;41154;45.394;5.734;2023-05-03T05:25:39;97270.19;;;5.95;100.00
55289;BME280;41154;45.394;5.734;2023-05-03T05:28:05;97271.22;;;6.01;100.00
55289;BME280;41154;45.394;5.734;2023-05-03T05:30:32;97274.75;;;5.88;100.00
55289;BME280;41154;45.394;5.734;2023-05-03T05:32:59;97274.50;;;5.96;100.00
55289;BME280;41154;45.394;5.734;2023-05-03T05:35:25;97271.03;;;5.89;100.00
55289;BME280;41154;45.394;5.734;2023-05-03T05:37:51;97281.47;;;5.90;100.00
55289;BME280;41154;45.394;5.734;2023-05-03T05:40:17;97271.78;;;6.09;100.00
55289;BME280;41154;45.394;5.734;2023-05-03T05:42:48;97283.72;;;5.93;100.00
55289;BME280;41154;45.394;5.734;2023-05-03T05:45:16;97291.09;;;5.98;100.00
55289;BME280;41154;45.394;5.734;2023-05-03T05:47:43;97278.75;;;7.11;100.00
55289;BME280;41154;45.394;5.734;2023-05-03T05:50:09;97283.84;;;11.03;100.00
55289;BME280;41154;45.394;5.734;2023-05-03T05:52:36;97283.94;;;13.16;100.00
55289;BME280;41154;45.394;5.734;2023-05-03T05:55:03;97280.41;;;14.22;100.00
55289;BME280;41154;45.394;5.734;2023-05-03T05:57:29;97279.94;;;14.66;100.00
55289;BME280;41154;45.394;5.734;2023-05-03T05:59:55;97274.50;;;15.27;100.00
55289;BME280;41154;45.394;5.734;2023-05-03T06:02:21;97268.72;;;15.65;100.00
55289;BME280;41154;45.394;5.734;2023-05-03T06:04:49;97257.44;;;16.52;96.96
55289;BME280;41154;45.394;5.734;2023-05-03T06:07:15;97271.88;;;16.43;94.98
55289;BME280;41154;45.394;5.734;2023-05-03T06:09:41;97268.16;;;16.68;94.60
55289;BME280;41154;45.394;5.734;2023-05-03T06:12:08;97272.19;;;18.07;90.28
55289;BME280;41154;45.394;5.734;2023-05-03T06:14:38;97273.25;;;17.63;90.21
55289;BME280;41154;45.394;5.734;2023-05-03T06:17:04;97276.38;;;18.18;88.31
55289;BME280;41154;45.394;5.734;2023-05-03T06:19:30;97277.09;;;18.62;83.78
55289;BME280;41154;45.394;5.734;2023-05-03T06:21:56;97263.25;;;18.96;82.87
55289;BME280;41154;45.394;5.734;2023-05-03T06:24:22;97261.50;;;19.19;82.91
55289;BME280;41154;45.394;5.734;2023-05-03T06:26:51;97264.88;;;18.97;86.53
55289;BME280;41154;45.394;5.734;2023-05-03T06:29:18;97271.59;;;19.19;86.99
55289;BME280;41154;45.394;5.734;2023-05-03T06:31:44;97267.69;;;19.53;81.99
55289;BME280;41154;45.394;5.734;2023-05-03T06:34:11;97267.78;;;19.62;82.27
55289;BME280;41154;45.394;5.734;2023-05-03T06:36:39;97264.44;;;20.20;79.79
55289;BME280;41154;45.394;5.734;2023-05-03T06:39:05;97256.28;;;22.75;65.22
55289;BME280;41154;45.394;5.734;2023-05-03T06:41:31;97265.41;;;20.97;67.03
55289;BME280;41154;45.394;5.734;2023-05-03T06:44:00;97266.81;;;20.95;68.57
55289;BME280;41154;45.394;5.734;2023-05-03T06:46:26;97269.81;;;21.79;66.98
55289;BME280;41154;45.394;5.734;2023-05-03T06:48:52;97272.66;;;22.22;63.36
55289;BME280;41154;45.394;5.734;2023-05-03T06:51:24;97270.81;;;21.20;67.81
55289;BME280;41154;45.394;5.734;2023-05-03T06:53:53;97265.81;;;21.45;67.18
55289;BME280;41154;45.394;5.734;2023-05-03T06:56:21;97269.19;;;21.90;66.45
55289;BME280;41154;45.394;5.734;2023-05-03T06:58:46;97262.41;;;24.44;55.49
55289;BME280;41154;45.394;5.734;2023-05-03T07:01:12;97261.22;;;22.20;62.07
55289;BME280;41154;45.394;5.734;2023-05-03T07:03:38;97262.00;;;21.54;67.83
55289;BME280;41154;45.394;5.734;2023-05-03T07:06:04;97266.72;;;23.08;59.56
55289;BME280;41154;45.394;5.734;2023-05-03T07:08:30;97263.69;;;22.48;60.25
55289;BME280;41154;45.394;5.734;2023-05-03T07:10:56;97262.22;;;22.42;58.16
55289;BME280;41154;45.394;5.734;2023-05-03T07:13:22;97251.28;;;24.19;56.52
55289;BME280;41154;45.394;5.734;2023-05-03T07:15:48;97246.56;;;25.99;47.60
55289;BME280;41154;45.394;5.734;2023-05-03T07:18:13;97252.91;;;25.29;49.78
55289;BME280;41154;45.394;5.734;2023-05-03T07:20:39;97252.16;;;23.33;56.05
55289;BME280;41154;45.394;5.734;2023-05-03T07:23:05;97253.41;;;22.63;58.38
55289;BME280;41154;45.394;5.734;2023-05-03T07:25:32;97249.91;;;21.38;61.59
55289;BME280;41154;45.394;5.734;2023-05-03T07:27:58;97243.81;;;25.62;50.53
55289;BME280;41154;45.394;5.734;2023-05-03T07:30:23;97242.25;;;25.98;48.37
55289;BME280;41154;45.394;5.734;2023-05-03T07:32:49;97249.53;;;21.31;59.94
55289;BME280;41154;45.394;5.734;2023-05-03T07:35:15;97251.94;;;22.39;56.61
55289;BME280;41154;45.394;5.734;2023-05-03T07:37:41;97247.00;;;21.75;61.02
55289;BME280;41154;45.394;5.734;2023-05-03T07:40:08;97251.50;;;23.75;53.71
55289;BME280;41154;45.394;5.734;2023-05-03T07:42:34;97250.00;;;22.74;57.79
55289;BME280;41154;45.394;5.734;2023-05-03T07:45:01;97257.47;;;24.07;52.01
55289;BME280;41154;45.394;5.734;2023-05-03T07:47:27;97257.06;;;23.58;53.77
55289;BME280;41154;45.394;5.734;2023-05-03T07:49:53;97269.78;;;22.45;55.73
55289;BME280;41154;45.394;5.734;2023-05-03T07:52:19;97258.41;;;23.51;53.24
55289;BME280;41154;45.394;5.734;2023-05-03T07:54:45;97272.75;;;21.91;57.86
55289;BME280;41154;45.394;5.734;2023-05-03T07:57:12;97270.44;;;22.68;57.54
55289;BME280;41154;45.394;5.734;2023-05-03T07:59:38;97281.06;;;22.52;55.81
55289;BME280;41154;45.394;5.734;2023-05-03T08:02:04;97273.16;;;24.49;58.33
55289;BME280;41154;45.394;5.734;2023-05-03T08:04:30;97269.44;;;25.54;48.93
55289;BME280;41154;45.394;5.734;2023-05-03T08:07:00;97273.19;;;25.49;47.65
55289;BME280;41154;45.394;5.734;2023-05-03T08:09:26;97279.00;;;26.06;46.84
55289;BME280;41154;45.394;5.734;2023-05-03T08:11:54;97271.09;;;26.16;44.91
55289;BME280;41154;45.394;5.734;2023-05-03T08:14:20;97273.13;;;26.19;46.30
55289;BME280;41154;45.394;5.734;2023-05-03T08:16:47;97264.53;;;23.48;52.43
55289;BME280;41154;45.394;5.734;2023-05-03T08:19:13;97262.22;;;22.94;54.49
55289;BME280;41154;45.394;5.734;2023-05-03T08:21:39;97255.75;;;23.25;53.70
55289;BME280;41154;45.394;5.734;2023-05-03T08:24:05;97247.25;;;23.57;54.05
55289;BME280;41154;45.394;5.734;2023-05-03T08:26:33;97243.13;;;24.52;53.47
55289;BME280;41154;45.394;5.734;2023-05-03T08:28:59;97245.66;;;25.82;49.53
55289;BME280;41154;45.394;5.734;2023-05-03T08:31:27;97245.66;;;26.60;44.37
55289;BME280;41154;45.394;5.734;2023-05-03T08:33:54;97239.47;;;25.73;45.49
55289;BME280;41154;45.394;5.734;2023-05-03T08:36:20;97236.75;;;25.98;45.28
55289;BME280;41154;45.394;5.734;2023-05-03T08:38:46;97243.59;;;26.16;45.07
55289;BME280;41154;45.394;5.734;2023-05-03T08:41:21;97245.03;;;25.27;46.96
55289;BME280;41154;45.394;5.734;2023-05-03T08:43:54;97246.91;;;25.97;44.50
55289;BME280;41154;45.394;5.734;2023-05-03T08:46:20;97242.97;;;23.77;51.32
55289;BME280;41154;45.394;5.734;2023-05-03T08:48:48;97249.88;;;25.80;47.81
55289;BME280;41154;45.394;5.734;2023-05-03T08:51:15;97251.13;;;22.82;56.08
55289;BME280;41154;45.394;5.734;2023-05-03T08:53:41;97230.66;;;24.76;48.11
55289;BME280;41154;45.394;5.734;2023-05-03T08:56:15;97240.69;;;23.49;50.19
55289;BME280;41154;45.394;5.734;2023-05-03T08:58:41;97241.59;;;23.92;50.73
55289;BME280;41154;45.394;5.734;2023-05-03T09:01:07;97245.34;;;25.26;47.08
55289;BME280;41154;45.394;5.734;2023-05-03T09:03:35;97234.84;;;23.59;51.56
55289;BME280;41154;45.394;5.734;2023-05-03T09:06:01;97232.31;;;25.23;49.17
55289;BME280;41154;45.394;5.734;2023-05-03T09:08:28;97233.75;;;24.11;52.43
55289;BME280;41154;45.394;5.734;2023-05-03T09:10:54;97228.50;;;25.03;50.54
55289;BME280;41154;45.394;5.734;2023-05-03T09:13:20;97231.63;;;23.10;53.88
55289;BME280;41154;45.394;5.734;2023-05-03T09:15:53;97223.47;;;23.40;54.41
55289;BME280;41154;45.394;5.734;2023-05-03T09:18:19;97227.91;;;25.80;52.28
55289;BME280;41154;45.394;5.734;2023-05-03T09:20:47;97230.31;;;24.65;54.57
55289;BME280;41154;45.394;5.734;2023-05-03T09:23:17;97239.16;;;23.60;57.58
55289;BME280;41154;45.394;5.734;2023-05-03T09:25:49;97240.81;;;22.00;64.07
55289;BME280;41154;45.394;5.734;2023-05-03T09:28:18;97248.06;;;19.84;66.63
55289;BME280;41154;45.394;5.734;2023-05-03T09:30:45;97251.47;;;19.75;74.79
55289;BME280;41154;45.394;5.734;2023-05-03T09:33:11;97239.72;;;20.53;78.43
55289;BME280;41154;45.394;5.734;2023-05-03T09:35:37;97232.63;;;20.29;69.99
55289;BME280;41154;45.394;5.734;2023-05-03T09:38:03;97235.28;;;21.03;66.08
55289;BME280;41154;45.394;5.734;2023-05-03T09:40:29;97232.94;;;20.28;70.53
55289;BME280;41154;45.394;5.734;2023-05-03T09:43:09;97240.78;;;20.66;68.22
55289;BME280;41154;45.394;5.734;2023-05-03T09:45:39;97242.72;;;18.90;76.65
55289;BME280;41154;45.394;5.734;2023-05-03T09:48:05;97242.22;;;19.77;73.45
55289;BME280;41154;45.394;5.734;2023-05-03T09:50:33;97242.69;;;19.92;72.61
55289;BME280;41154;45.394;5.734;2023-05-03T09:53:02;97235.00;;;20.45;71.87
55289;BME280;41154;45.394;5.734;2023-05-03T09:55:33;97234.09;;;20.72;69.88
55289;BME280;41154;45.394;5.734;2023-05-03T09:58:00;97234.06;;;20.27;73.07
55289;BME280;41154;45.394;5.734;2023-05-03T10:00:28;97240.72;;;20.21;71.20
55289;BME280;41154;45.394;5.734;2023-05-03T10:02:56;97227.44;;;20.05;73.69
55289;BME280;41154;45.394;5.734;2023-05-03T10:05:25;97242.19;;;20.04;78.35
55289;BME280;41154;45.394;5.734;2023-05-03T10:07:53;97235.25;;;19.84;75.82
55289;BME280;41154;45.394;5.734;2023-05-03T10:10:22;97239.75;;;19.19;76.30
55289;BME280;41154;45.394;5.734;2023-05-03T10:12:49;97233.13;;;19.95;74.97
55289;BME280;41154;45.394;5.734;2023-05-03T10:15:19;97231.72;;;19.98;75.83
55289;BME280;41154;45.394;5.734;2023-05-03T10:17:48;97241.78;;;19.97;73.11
55289;BME280;41154;45.394;5.734;2023-05-03T10:20:27;97224.69;;;20.19;75.25
55289;BME280;41154;45.394;5.734;2023-05-03T10:25:31;97223.47;;;19.89;72.48
55289;BME280;41154;45.394;5.734;2023-05-03T10:28:04;97228.19;;;19.83;73.22
55289;BME280;41154;45.394;5.734;2023-05-03T10:30:35;97229.69;;;19.75;76.89
55289;BME280;41154;45.394;5.734;2023-05-03T10:35:44;97225.16;;;19.85;78.28
55289;BME280;41154;45.394;5.734;2023-05-03T10:38:23;97225.81;;;18.93;76.21
55289;BME280;41154;45.394;5.734;2023-05-03T10:40:50;97217.50;;;19.17;77.13
55289;BME280;41154;45.394;5.734;2023-05-03T10:45:59;97210.56;;;19.81;81.16
55289;BME280;41154;45.394;5.734;2023-05-03T10:48:25;97210.44;;;20.00;85.25
55289;BME280;41154;45.394;5.734;2023-05-03T10:50:53;97211.63;;;20.07;76.20
55289;BME280;41154;45.394;5.734;2023-05-03T10:56:08;97207.91;;;19.89;74.58
55289;BME280;41154;45.394;5.734;2023-05-03T11:01:09;97208.13;;;19.24;78.80
55289;BME280;41154;45.394;5.734;2023-05-03T11:06:33;97197.75;;;18.79;78.35
55289;BME280;41154;45.394;5.734;2023-05-03T11:09:01;97192.41;;;19.20;78.63
55289;BME280;41154;45.394;5.734;2023-05-03T11:11:28;97199.97;;;19.51;75.28
55289;BME280;41154;45.394;5.734;2023-05-03T11:13:54;97194.63;;;19.60;75.13
55289;BME280;41154;45.394;5.734;2023-05-03T11:16:19;97197.63;;;18.89;83.02
55289;BME280;41154;45.394;5.734;2023-05-03T11:18:46;97200.59;;;19.34;82.64
55289;BME280;41154;45.394;5.734;2023-05-03T11:21:13;97189.91;;;19.24;81.68
55289;BME280;41154;45.394;5.734;2023-05-03T11:23:40;97195.81;;;18.98;83.66
55289;BME280;41154;45.394;5.734;2023-05-03T11:26:07;97187.69;;;19.26;81.10
55289;BME280;41154;45.394;5.734;2023-05-03T11:28:36;97190.19;;;19.64;86.43
55289;BME280;41154;45.394;5.734;2023-05-03T11:31:02;97186.88;;;19.12;83.29
55289;BME280;41154;45.394;5.734;2023-05-03T11:33:28;97203.28;;;18.74;85.99
55289;BME280;41154;45.394;5.734;2023-05-03T11:35:55;97197.13;;;19.15;85.01
55289;BME280;41154;45.394;5.734;2023-05-03T11:38:21;97192.00;;;19.41;80.14
55289;BME280;41154;45.394;5.734;2023-05-03T11:40:47;97191.63;;;19.48;79.79
55289;BME280;41154;45.394;5.734;2023-05-03T11:43:13;97178.69;;;19.95;81.87
55289;BME280;41154;45.394;5.734;2023-05-03T11:45:40;97183.66;;;19.79;82.00
55289;BME280;41154;45.394;5.734;2023-05-03T11:48:09;97178.53;;;19.36;79.43
55289;BME280;41154;45.394;5.734;2023-05-03T11:50:52;97181.44;;;19.26;77.82
55289;BME280;41154;45.394;5.734;2023-05-03T11:53:25;97170.84;;;19.52;86.12
55289;BME280;41154;45.394;5.734;2023-05-03T11:55:52;97162.97;;;19.64;80.99
55289;BME280;41154;45.394;5.734;2023-05-03T11:58:23;97170.25;;;19.83;79.72
55289;BME280;41154;45.394;5.734;2023-05-03T12:00:53;97166.31;;;19.61;77.91
55289;BME280;41154;45.394;5.734;2023-05-03T12:03:24;97173.28;;;19.12;75.91
55289;BME280;41154;45.394;5.734;2023-05-03T12:05:51;97175.09;;;19.44;77.38
55289;BME280;41154;45.394;5.734;2023-05-03T12:08:18;97159.47;;;19.64;77.23
55289;BME280;41154;45.394;5.734;2023-05-03T12:10:49;97164.31;;;19.53;79.21
55289;BME280;41154;45.394;5.734;2023-05-03T12:13:30;97163.91;;;19.32;80.06
55289;BME280;41154;45.394;5.734;2023-05-03T12:15:57;97157.56;;;19.50;79.57
55289;BME280;41154;45.394;5.734;2023-05-03T12:18:25;97153.19;;;19.63;77.85
55289;BME280;41154;45.394;5.734;2023-05-03T12:20:55;97143.00;;;19.83;78.31
55289;BME280;41154;45.394;5.734;2023-05-03T12:23:23;97149.47;;;19.73;76.25
55289;BME280;41154;45.394;5.734;2023-05-03T12:25:48;97144.53;;;20.11;76.18
55289;BME280;41154;45.394;5.734;2023-05-03T12:28:16;97140.28;;;19.83;79.43
55289;BME280;41154;45.394;5.734;2023-05-03T12:30:42;97148.00;;;20.03;78.16
55289;BME280;41154;45.394;5.734;2023-05-03T12:33:08;97145.22;;;19.95;82.74
55289;BME280;41154;45.394;5.734;2023-05-03T12:35:34;97137.91;;;19.39;79.54
55289;BME280;41154;45.394;5.734;2023-05-03T12:38:00;97135.06;;;19.58;84.02
55289;BME280;41154;45.394;5.734;2023-05-03T12:40:29;97132.56;;;19.99;80.21
55289;BME280;41154;45.394;5.734;2023-05-03T12:42:55;97128.09;;;19.66;85.06
55289;BME280;41154;45.394;5.734;2023-05-03T12:45:21;97126.72;;;19.55;84.18
55289;BME280;41154;45.394;5.734;2023-05-03T12:47:46;97118.09;;;19.75;86.77
55289;BME280;41154;45.394;5.734;2023-05-03T12:50:12;97119.13;;;19.80;89.87
55289;BME280;41154;45.394;5.734;2023-05-03T12:52:38;97114.41;;;19.57;83.95
55289;BME280;41154;45.394;5.734;2023-05-03T12:55:04;97120.19;;;19.92;82.59
55289;BME280;41154;45.394;5.734;2023-05-03T12:57:31;97120.88;;;19.98;85.15
55289;BME280;41154;45.394;5.734;2023-05-03T12:59:57;97115.91;;;19.64;81.80
55289;BME280;41154;45.394;5.734;2023-05-03T13:02:22;97120.81;;;19.75;83.25
55289;BME280;41154;45.394;5.734;2023-05-03T13:04:48;97114.19;;;19.82;92.01
55289;BME280;41154;45.394;5.734;2023-05-03T13:07:21;97113.34;;;19.95;84.37
55289;BME280;41154;45.394;5.734;2023-05-03T13:09:49;97112.72;;;20.21;87.06
55289;BME280;41154;45.394;5.734;2023-05-03T13:12:15;97106.91;;;20.14;82.67
55289;BME280;41154;45.394;5.734;2023-05-03T13:14:45;97109.31;;;19.92;80.85
55289;BME280;41154;45.394;5.734;2023-05-03T13:17:12;97111.09;;;19.97;84.36
55289;BME280;41154;45.394;5.734;2023-05-03T13:19:39;97106.53;;;20.06;83.33
55289;BME280;41154;45.394;5.734;2023-05-03T13:22:06;97104.59;;;19.70;85.35